createdAt,value
2018-11-11T00:00:08.447Z,99.90
2018-11-11T00:10:09.717Z,99.90
2018-11-11T00:20:10.975Z,99.90
2018-11-11T00:30:12.236Z,99.90
2018-11-11T00:40:14.265Z,99.90
2018-11-11T00:50:15.551Z,99.90
2018-11-11T01:00:16.821Z,99.90
2018-11-11T01:10:18.081Z,99.90
2018-11-11T01:20:19.314Z,99.90
2018-11-11T01:30:20.595Z,99.90
2018-11-11T01:40:21.834Z,99.90
2018-11-11T01:50:23.086Z,99.90
2018-11-11T02:00:24.318Z,99.90
2018-11-11T02:10:25.567Z,99.90
2018-11-11T02:20:26.831Z,99.90
2018-11-11T02:30:28.097Z,99.90
2018-11-11T02:40:29.360Z,99.90
2018-11-11T02:50:30.640Z,99.90
2018-11-11T03:00:31.932Z,99.90
2018-11-11T03:10:33.196Z,99.90
2018-11-11T03:20:34.441Z,99.90
2018-11-11T03:30:36.488Z,99.90
2018-11-11T03:40:38.491Z,99.90
2018-11-11T03:50:40.516Z,99.90
2018-11-11T04:00:41.773Z,99.90
2018-11-11T04:10:43.042Z,99.90
2018-11-11T04:20:44.316Z,99.90
2018-11-11T04:30:45.591Z,99.90
2018-11-11T04:40:47.630Z,99.90
2018-11-11T04:50:49.995Z,99.90
2018-11-11T05:00:51.254Z,99.90
2018-11-11T05:10:52.526Z,99.90
2018-11-11T05:20:53.896Z,99.90
2018-11-11T05:30:55.150Z,99.90
2018-11-11T05:40:56.540Z,99.90
2018-11-11T05:50:57.790Z,99.90
2018-11-11T06:00:59.102Z,99.90
2018-11-11T06:11:00.382Z,99.90
2018-11-11T06:21:01.640Z,99.90
2018-11-11T06:31:02.939Z,99.90
2018-11-11T06:41:04.205Z,99.90
2018-11-11T06:51:05.459Z,99.90
2018-11-11T07:01:07.494Z,99.90
2018-11-11T07:11:09.526Z,99.90
2018-11-11T07:21:10.934Z,99.90
2018-11-11T07:31:12.186Z,99.90
2018-11-11T07:41:14.250Z,90.20
2018-11-11T07:51:16.593Z,90.20
2018-11-11T08:01:17.882Z,74.20
2018-11-11T08:11:19.496Z,69.10
2018-11-11T08:21:20.691Z,63.20
2018-11-11T08:31:21.956Z,66.20
2018-11-11T08:41:23.231Z,63.00
2018-11-11T08:51:24.478Z,55.10
2018-11-11T09:01:25.720Z,46.60
2018-11-11T09:11:26.982Z,44.00
2018-11-11T09:21:28.266Z,42.10
2018-11-11T09:31:29.581Z,38.80
2018-11-11T09:41:31.619Z,48.80
2018-11-11T09:51:32.899Z,48.70
2018-11-11T10:01:34.168Z,52.90
2018-11-11T10:11:35.439Z,57.20
2018-11-11T10:21:36.707Z,56.10
2018-11-11T10:31:37.957Z,55.50
2018-11-11T10:41:39.207Z,54.50
2018-11-11T10:51:40.476Z,54.30
2018-11-11T11:01:41.727Z,55.50
2018-11-11T11:11:43.002Z,56.60
2018-11-11T11:21:44.259Z,60.10
2018-11-11T11:31:45.888Z,60.50
2018-11-11T11:41:47.330Z,60.10
2018-11-11T11:51:48.691Z,61.30
2018-11-11T12:01:49.961Z,62.80
2018-11-11T12:11:51.316Z,60.30
2018-11-11T12:21:52.609Z,60.80
2018-11-11T12:31:53.862Z,61.30
2018-11-11T12:41:55.138Z,62.30
2018-11-11T12:51:56.426Z,63.50
2018-11-11T13:01:58.521Z,62.40
2018-11-11T13:11:59.828Z,62.30
2018-11-11T13:22:01.057Z,63.40
2018-11-11T13:32:02.519Z,63.90
2018-11-11T13:42:03.829Z,67.10
2018-11-11T13:52:06.126Z,66.20
2018-11-11T14:02:07.412Z,66.90
2018-11-11T14:12:08.722Z,70.30
2018-11-11T14:22:09.974Z,71.90
2018-11-11T14:32:11.279Z,70.40
2018-11-11T14:42:12.493Z,72.30
2018-11-11T14:52:13.916Z,88.20
2018-11-11T15:02:15.055Z,99.90
2018-11-11T15:12:16.367Z,99.90
2018-11-11T15:22:17.722Z,99.90
2018-11-11T15:32:18.977Z,99.90
2018-11-11T15:42:20.290Z,99.90
2018-11-11T15:52:21.595Z,99.90
2018-11-11T16:02:22.860Z,99.90
2018-11-11T16:12:24.146Z,99.90
2018-11-11T16:22:25.411Z,99.90
2018-11-11T16:32:26.650Z,99.90
2018-11-11T16:42:27.942Z,99.90
2018-11-11T16:52:29.202Z,99.90
2018-11-11T17:02:30.446Z,99.90
2018-11-11T17:12:31.737Z,99.90
2018-11-11T17:22:33.220Z,99.90
2018-11-11T17:32:35.495Z,99.90
2018-11-11T17:42:36.668Z,99.90
2018-11-11T17:52:37.950Z,99.90
2018-11-11T18:02:39.224Z,99.90
2018-11-11T18:12:40.506Z,99.90
2018-11-11T18:22:41.756Z,99.90
2018-11-11T18:32:43.754Z,99.90
2018-11-11T18:42:45.005Z,99.90
2018-11-11T18:52:46.282Z,99.90
2018-11-11T19:02:47.637Z,99.90
2018-11-11T19:12:48.947Z,99.90
2018-11-11T19:22:51.087Z,99.90
2018-11-11T19:32:52.366Z,99.90
2018-11-11T19:42:54.452Z,99.90
2018-11-11T19:52:55.862Z,99.90
2018-11-11T20:02:57.131Z,99.90
2018-11-11T20:12:58.425Z,99.90
2018-11-11T20:22:59.700Z,99.90
2018-11-11T20:33:01.101Z,99.90
2018-11-11T20:43:02.382Z,99.90
2018-11-11T20:53:03.602Z,99.90
2018-11-11T21:03:04.874Z,99.90
2018-11-11T21:13:06.155Z,99.90
2018-11-11T21:23:07.451Z,99.90
2018-11-11T21:33:09.500Z,99.90
2018-11-11T21:43:10.824Z,99.90
2018-11-11T21:53:12.185Z,99.90
2018-11-11T22:03:13.368Z,99.90
2018-11-11T22:13:14.604Z,99.90
2018-11-11T22:23:15.882Z,99.90
2018-11-11T22:33:17.124Z,99.90
2018-11-11T22:43:18.350Z,99.90
2018-11-11T22:53:19.639Z,99.90
2018-11-11T23:03:20.906Z,99.90
2018-11-11T23:13:22.164Z,99.90
2018-11-11T23:23:23.451Z,99.90
2018-11-11T23:33:24.738Z,99.90
2018-11-11T23:43:25.996Z,99.90
2018-11-11T23:53:28.015Z,99.90
